Time;durP1;ratioP1;P1;durP2;ratioP2;P2;SDS_P1;SDS_P2;PMS_P1;PMS_P2;Temp;Humidity;BMP_temperature;BMP_pressure;BME280_temperature;BME280_humidity;BME280_pressure;Samples;Min_cycle;Max_cycle;Signal;HPM_P1;HPM_P2
2023/05/17 00:00:12;;;;;;;;;;;;;;;14.95;85.13;101108.28;5096609;28;19937;-69
2023/05/17 00:02:37;;;;;;;;;;;;;;;14.91;85.28;101110.50;5096332;28;20014;-69
2023/05/17 00:05:03;;;;;;;;;;;;;;;14.86;86.01;101119.09;5096089;28;19912;-69
2023/05/17 00:07:29;;;;;;;;;;;;;;;14.84;86.19;101122.97;5096002;28;19912;-68
2023/05/17 00:09:55;;;;;;;;;;;;;;;14.82;86.28;101119.63;5096189;28;19919;-71
2023/05/17 00:12:20;;;;;;;;;;;;;;;14.83;85.84;101115.94;5095852;28;19912;-70
2023/05/17 00:14:45;;;;;;;;;;;;;;;14.85;84.94;101135.34;5096202;28;19920;-69
2023/05/17 00:17:11;;;;;;;;;;;;;;;14.84;85.03;101128.31;5096006;28;20391;-72
2023/05/17 00:19:36;;;;;;;;;;;;;;;14.80;85.85;101119.81;5095942;28;19916;-71
2023/05/17 00:22:02;;;;;;;;;;;;;;;14.77;85.50;101120.19;5095762;28;19965;-68
2023/05/17 00:24:27;;;;;;;;;;;;;;;14.70;86.00;101131.78;5094444;28;19912;-70
2023/05/17 00:26:52;;;;;;;;;;;;;;;14.64;85.63;101127.16;5095975;28;19943;-72
2023/05/17 00:29:18;;;;;;;;;;;;;;;14.63;86.13;101125.50;5095539;28;20355;-70
2023/05/17 00:31:43;;;;;;;;;;;;;;;14.63;85.86;101123.63;5095705;28;19912;-72
2023/05/17 00:34:08;;;;;;;;;;;;;;;14.64;86.73;101119.09;5095479;28;19919;-71
2023/05/17 00:36:34;;;;;;;;;;;;;;;14.62;87.75;101129.19;5095381;28;20382;-70
2023/05/17 00:38:59;;;;;;;;;;;;;;;14.65;87.26;101128.81;5095719;28;19912;-72
2023/05/17 00:41:25;;;;;;;;;;;;;;;14.68;87.06;101126.59;5095655;28;19958;-68
2023/05/17 00:43:50;;;;;;;;;;;;;;;14.70;86.66;101129.94;5095695;28;19912;-70
2023/05/17 00:46:16;;;;;;;;;;;;;;;14.70;86.86;101127.25;5095490;28;19916;-69
2023/05/17 00:48:41;;;;;;;;;;;;;;;14.70;86.30;101127.25;5095724;28;19939;-71
2023/05/17 00:51:07;;;;;;;;;;;;;;;14.69;86.68;101130.13;5095358;28;20014;-71
2023/05/17 00:53:33;;;;;;;;;;;;;;;14.67;87.10;101124.94;5095015;28;20050;-69
2023/05/17 00:55:59;;;;;;;;;;;;;;;14.62;87.56;101127.34;5095458;28;19919;-70
2023/05/17 00:58:25;;;;;;;;;;;;;;;14.60;87.24;101125.84;5095547;28;19912;-69
2023/05/17 01:00:50;;;;;;;;;;;;;;;14.58;87.01;101139.44;5095204;28;19980;-71
2023/05/17 01:03:16;;;;;;;;;;;;;;;14.55;87.25;101135.28;5095158;28;19923;-70
2023/05/17 01:05:41;;;;;;;;;;;;;;;14.48;88.15;101134.31;5094698;28;19916;-69
2023/05/17 01:08:06;;;;;;;;;;;;;;;14.51;86.80;101133.97;5095107;28;19911;-70
2023/05/17 01:10:50;;;;;;;;;;;;;;;14.46;88.55;101141.72;5095301;28;19919;-69
2023/05/17 01:13:21;;;;;;;;;;;;;;;14.46;88.50;101140.88;5094938;28;19923;-69
2023/05/17 01:16:02;;;;;;;;;;;;;;;14.45;87.57;101141.84;5093676;28;19912;-71
2023/05/17 01:18:33;;;;;;;;;;;;;;;14.41;88.24;101136.00;5094670;28;19912;-72
2023/05/17 01:21:00;;;;;;;;;;;;;;;14.35;88.77;101147.44;5095075;28;19916;-70
2023/05/17 01:23:25;;;;;;;;;;;;;;;14.29;89.54;101141.97;5094892;28;19918;-69
2023/05/17 01:25:53;;;;;;;;;;;;;;;14.24;88.86;101148.69;5094753;28;20007;-69
2023/05/17 01:28:20;;;;;;;;;;;;;;;14.17;89.70;101154.94;5094810;28;19965;-70
2023/05/17 01:30:46;;;;;;;;;;;;;;;14.12;90.26;101149.25;5094589;28;20014;-69
2023/05/17 01:33:11;;;;;;;;;;;;;;;14.09;90.58;101160.31;5094559;28;19916;-72
2023/05/17 01:35:37;;;;;;;;;;;;;;;14.08;90.81;101158.66;5093188;28;20127;-68
2023/05/17 01:38:02;;;;;;;;;;;;;;;14.06;90.62;101152.63;5094761;28;19935;-71
2023/05/17 01:40:28;;;;;;;;;;;;;;;14.02;91.42;101159.34;5094548;28;19919;-72
2023/05/17 01:42:58;;;;;;;;;;;;;;;14.00;90.82;101166.72;5095026;28;19912;-69
2023/05/17 01:45:26;;;;;;;;;;;;;;;13.98;90.88;101164.22;5095353;28;19920;-71
2023/05/17 01:47:52;;;;;;;;;;;;;;;13.98;90.13;101158.88;5094767;28;19965;-70
2023/05/17 01:50:21;;;;;;;;;;;;;;;13.96;91.36;101158.22;5095286;28;19920;-72
2023/05/17 01:52:51;;;;;;;;;;;;;;;14.02;89.98;101148.63;5094407;28;19935;-69
2023/05/17 01:55:32;;;;;;;;;;;;;;;14.09;90.09;101150.44;5093131;28;20359;-70
2023/05/17 01:57:58;;;;;;;;;;;;;;;14.16;90.41;101143.34;5094118;28;19912;-70
2023/05/17 02:00:24;;;;;;;;;;;;;;;14.20;89.62;101150.06;5094586;28;20215;-70
2023/05/17 02:02:50;;;;;;;;;;;;;;;14.22;89.91;101149.88;5094097;28;19951;-71
2023/05/17 02:05:15;;;;;;;;;;;;;;;14.23;88.63;101157.72;5094560;28;20364;-69
2023/05/17 02:07:40;;;;;;;;;;;;;;;14.23;89.37;101151.53;5092960;28;19919;-71
2023/05/17 02:10:06;;;;;;;;;;;;;;;14.16;90.06;101162.09;5094703;28;19916;-70
2023/05/17 02:12:31;;;;;;;;;;;;;;;14.15;89.97;101154.25;5094789;28;19912;-69
2023/05/17 02:14:57;;;;;;;;;;;;;;;14.17;89.99;101153.09;5098275;28;19912;-72
2023/05/17 02:17:23;;;;;;;;;;;;;;;14.20;89.78;101152.72;5093162;28;20257;-72
2023/05/17 02:19:48;;;;;;;;;;;;;;;14.18;89.62;101162.78;5093901;28;19912;-68
2023/05/17 02:22:14;;;;;;;;;;;;;;;14.14;90.33;101157.94;5092362;28;20394;-72
2023/05/17 02:24:39;;;;;;;;;;;;;;;14.13;89.82;101153.59;5093787;28;20264;-69
2023/05/17 02:27:04;;;;;;;;;;;;;;;14.12;89.71;101165.31;5093450;28;19912;-70
2023/05/17 02:29:30;;;;;;;;;;;;;;;14.08;90.36;101158.66;5093604;28;20489;-71
2023/05/17 02:31:56;;;;;;;;;;;;;;;14.04;90.59;101168.03;5093506;28;19916;-72
2023/05/17 02:34:21;;;;;;;;;;;;;;;14.03;90.78;101174.41;5096065;28;19912;-71
2023/05/17 02:36:47;;;;;;;;;;;;;;;14.07;89.62;101167.69;5100660;28;20051;-69
2023/05/17 02:39:12;;;;;;;;;;;;;;;14.17;89.83;101173.69;5100104;28;19947;-68
2023/05/17 02:41:38;;;;;;;;;;;;;;;14.31;89.50;101167.56;5099690;28;19912;-71
2023/05/17 02:44:03;;;;;;;;;;;;;;;14.40;89.38;101173.69;5098882;28;19920;-70
2023/05/17 02:46:28;;;;;;;;;;;;;;;14.45;89.51;101174.03;5101437;28;20002;-70
2023/05/17 02:48:54;;;;;;;;;;;;;;;14.54;88.89;101173.81;5100118;28;19923;-69
2023/05/17 02:51:20;;;;;;;;;;;;;;;14.67;88.89;101164.31;5100097;28;19963;-70
2023/05/17 02:53:45;;;;;;;;;;;;;;;14.79;88.33;101168.25;5097580;28;19916;-72
2023/05/17 02:56:10;;;;;;;;;;;;;;;14.88;87.36;101173.38;5093227;28;19916;-71
2023/05/17 02:58:36;;;;;;;;;;;;;;;15.01;87.09;101167.38;5093168;28;19947;-71
2023/05/17 03:01:01;;;;;;;;;;;;;;;15.07;86.87;101174.72;5092013;28;19912;-71
2023/05/17 03:03:26;;;;;;;;;;;;;;;15.36;86.78;101170.41;5093161;28;19919;-73
2023/05/17 03:05:52;;;;;;;;;;;;;;;16.22;83.37;101172.41;5093147;28;19912;-69
2023/05/17 03:08:17;;;;;;;;;;;;;;;16.82;79.59;101164.97;5093166;28;20003;-71
2023/05/17 03:10:42;;;;;;;;;;;;;;;17.91;74.11;101172.34;5092773;28;19920;-69
2023/05/17 03:13:08;;;;;;;;;;;;;;;18.86;69.60;101168.66;5092969;28;19918;-68
2023/05/17 03:15:33;;;;;;;;;;;;;;;19.59;65.58;101170.47;5092914;28;19912;-69
2023/05/17 03:17:59;;;;;;;;;;;;;;;19.89;63.66;101165.41;5092811;28;19912;-70
2023/05/17 03:20:24;;;;;;;;;;;;;;;19.91;63.48;101171.41;5092586;28;20268;-70
2023/05/17 03:22:49;;;;;;;;;;;;;;;19.71;63.50;101174.22;5092652;28;19916;-69
2023/05/17 03:25:15;;;;;;;;;;;;;;;19.06;66.08;101178.63;5091041;28;19916;-70
2023/05/17 03:27:40;;;;;;;;;;;;;;;18.29;67.92;101171.03;5091355;28;19920;-71
2023/05/17 03:30:06;;;;;;;;;;;;;;;17.42;72.08;101179.72;5092521;28;19969;-71
2023/05/17 03:32:31;;;;;;;;;;;;;;;16.94;74.78;101185.75;5092491;28;20551;-72
2023/05/17 03:34:56;;;;;;;;;;;;;;;16.54;77.94;101191.78;5092464;28;19913;-70
2023/05/17 03:37:22;;;;;;;;;;;;;;;16.43;78.55;101188.53;5091974;28;20007;-73
2023/05/17 03:39:47;;;;;;;;;;;;;;;16.45;78.94;101180.28;5108115;28;19919;-72
2023/05/17 03:42:12;;;;;;;;;;;;;;;16.59;77.91;101182.09;5092581;28;19919;-71
2023/05/17 03:44:39;;;;;;;;;;;;;;;16.50;78.84;101182.44;5092363;28;19912;-70
2023/05/17 03:47:05;;;;;;;;;;;;;;;16.34;78.94;101187.00;5092317;28;19970;-71
2023/05/17 03:49:30;;;;;;;;;;;;;;;16.42;79.68;101184.19;5074767;28;20324;-72
2023/05/17 03:51:56;;;;;;;;;;;;;;;16.74;78.14;101192.81;5073897;28;19920;-70
2023/05/17 03:54:21;;;;;;;;;;;;;;;17.21;76.39;101188.66;5092097;28;19912;-71
2023/05/17 03:56:48;;;;;;;;;;;;;;;17.59;75.08;101198.03;5092283;28;20023;-70
2023/05/17 03:59:14;;;;;;;;;;;;;;;17.79;73.19;101200.06;5092265;28;20015;-70
2023/05/17 04:01:40;;;;;;;;;;;;;;;17.79;72.33;101202.75;5092044;28;19912;-70
2023/05/17 04:04:06;;;;;;;;;;;;;;;17.88;71.21;101201.53;5092154;28;20415;-70
2023/05/17 04:06:31;;;;;;;;;;;;;;;18.15;71.12;101203.31;5092335;28;19920;-71
2023/05/17 04:08:58;;;;;;;;;;;;;;;18.51;68.76;101204.91;5092342;28;19916;-70
2023/05/17 04:11:25;;;;;;;;;;;;;;;18.98;67.24;101200.44;5074450;28;19913;-71
2023/05/17 04:13:51;;;;;;;;;;;;;;;19.39;64.16;101206.47;5092335;28;20011;-72
2023/05/17 04:16:16;;;;;;;;;;;;;;;20.11;62.68;101205.44;5057968;28;20330;-70
2023/05/17 04:18:42;;;;;;;;;;;;;;;20.67;59.29;101198.53;5092090;28;19912;-70
2023/05/17 04:21:32;;;;;;;;;;;;;;;20.95;59.25;101200.81;5073020;28;20321;-76
2023/05/17 04:23:57;;;;;;;;;;;;;;;21.68;55.34;101206.41;5090375;28;20018;-73
2023/05/17 04:26:22;;;;;;;;;;;;;;;22.04;54.65;101200.22;5091901;28;19939;-72
2023/05/17 04:28:47;;;;;;;;;;;;;;;21.95;53.62;101206.94;5091839;28;20323;-70
2023/05/17 04:31:15;;;;;;;;;;;;;;;21.56;55.06;101200.09;5091776;28;19912;-70
2023/05/17 04:33:43;;;;;;;;;;;;;;;21.10;56.13;101198.59;5073787;28;19912;-73
2023/05/17 04:36:08;;;;;;;;;;;;;;;20.39;58.43;101204.28;5090857;28;19919;-70
2023/05/17 04:38:34;;;;;;;;;;;;;;;20.67;58.80;101193.94;5091936;28;20309;-69
2023/05/17 04:41:00;;;;;;;;;;;;;;;21.19;56.29;101202.72;5095249;28;19965;-70
2023/05/17 04:43:26;;;;;;;;;;;;;;;21.21;56.41;101199.78;5095459;28;19938;-70
2023/05/17 04:45:55;;;;;;;;;;;;;;;21.41;55.49;101200.47;5095221;28;19912;-70
2023/05/17 04:48:25;;;;;;;;;;;;;;;21.68;55.24;101201.00;5086749;28;20371;-69
2023/05/17 04:50:50;;;;;;;;;;;;;;;22.18;53.62;101201.69;5115555;28;19916;-69
2023/05/17 04:53:15;;;;;;;;;;;;;;;22.73;52.30;101203.44;5115860;28;19977;-69
2023/05/17 04:55:41;;;;;;;;;;;;;;;23.11;51.00;101211.19;5097839;28;19911;-70
2023/05/17 04:58:06;;;;;;;;;;;;;;;22.95;50.89;101212.72;5115960;28;19916;-70
2023/05/17 05:00:31;;;;;;;;;;;;;;;22.52;52.19;101213.75;5116016;28;19919;-70
2023/05/17 05:02:57;;;;;;;;;;;;;;;21.74;54.35;101202.81;5115437;28;19989;-70
2023/05/17 05:05:23;;;;;;;;;;;;;;;21.05;57.38;101211.97;5115449;28;19912;-70
2023/05/17 05:07:49;;;;;;;;;;;;;;;20.98;57.27;101214.75;5115977;28;20386;-70
2023/05/17 05:10:14;;;;;;;;;;;;;;;21.00;57.87;101209.94;5115920;28;19912;-73
2023/05/17 05:12:40;;;;;;;;;;;;;;;20.71;58.05;101205.97;5115411;28;20335;-74
2023/05/17 05:15:05;;;;;;;;;;;;;;;20.21;59.75;101207.69;5114901;28;20278;-72
2023/05/17 05:17:32;;;;;;;;;;;;;;;19.76;61.59;101206.81;5114970;28;19918;-73
2023/05/17 05:19:57;;;;;;;;;;;;;;;19.37;62.70;101211.25;5114972;28;19912;-72
2023/05/17 05:22:22;;;;;;;;;;;;;;;19.04;63.40;101208.53;5097201;28;19918;-73
2023/05/17 05:25:13;;;;;;;;;;;;;;;18.86;64.78;101222.66;5115192;28;19923;-73
2023/05/17 05:27:39;;;;;;;;;;;;;;;18.86;64.92;101222.66;5115027;28;19915;-70
2023/05/17 05:30:04;;;;;;;;;;;;;;;18.98;64.35;101230.13;5114665;28;19912;-71
2023/05/17 05:32:30;;;;;;;;;;;;;;;18.93;64.94;101227.22;5114576;28;19916;-71
2023/05/17 05:34:56;;;;;;;;;;;;;;;18.86;63.82;101228.03;5114793;28;19986;-72
2023/05/17 05:37:21;;;;;;;;;;;;;;;18.64;64.45;101228.41;5114719;28;19912;-70
2023/05/17 05:39:47;;;;;;;;;;;;;;;18.48;64.84;101229.56;5115577;28;19911;-71
2023/05/17 05:42:12;;;;;;;;;;;;;;;18.41;65.27;101226.03;5117245;28;19998;-71
2023/05/17 05:44:37;;;;;;;;;;;;;;;18.54;64.40;101231.47;5115301;28;19919;-71
2023/05/17 05:47:03;;;;;;;;;;;;;;;18.65;64.25;101239.00;5096042;28;19912;-69
2023/05/17 05:49:28;;;;;;;;;;;;;;;18.67;64.56;101231.53;5114631;28;19916;-70
2023/05/17 05:51:54;;;;;;;;;;;;;;;18.62;64.69;101231.31;5113252;28;19916;-70
2023/05/17 05:54:19;;;;;;;;;;;;;;;18.67;64.33;101228.84;5114279;28;19919;-71
2023/05/17 05:56:44;;;;;;;;;;;;;;;18.74;64.20;101235.06;5114412;28;19912;-72
2023/05/17 05:59:10;;;;;;;;;;;;;;;18.82;62.65;101231.38;5114363;28;19951;-72
2023/05/17 06:01:36;;;;;;;;;;;;;;;18.74;63.07;101221.56;5114076;28;19912;-75
2023/05/17 06:04:01;;;;;;;;;;;;;;;18.68;63.11;101222.41;5114257;28;19915;-72
2023/05/17 06:06:27;;;;;;;;;;;;;;;18.55;63.43;101230.44;5114309;28;19912;-72
2023/05/17 06:08:52;;;;;;;;;;;;;;;18.48;63.55;101234.97;5114074;28;19912;-71
2023/05/17 06:11:17;;;;;;;;;;;;;;;18.36;63.53;101226.63;5114014;28;19947;-71
2023/05/17 06:13:43;;;;;;;;;;;;;;;18.34;63.27;101234.09;5113910;28;19919;-72
2023/05/17 06:16:08;;;;;;;;;;;;;;;18.02;64.64;101226.72;5095547;28;20033;-72
2023/05/17 06:18:33;;;;;;;;;;;;;;;18.00;64.15;101231.47;5114450;28;19915;-72
2023/05/17 06:20:59;;;;;;;;;;;;;;;18.06;64.32;101241.44;5113804;28;20320;-71
2023/05/17 06:23:24;;;;;;;;;;;;;;;18.15;65.25;101232.97;5113706;28;19911;-71
2023/05/17 06:25:49;;;;;;;;;;;;;;;18.23;64.58;101235.53;5113727;28;19923;-75
2023/05/17 06:28:16;;;;;;;;;;;;;;;18.07;63.71;101237.72;5113768;28;19911;-71
2023/05/17 06:30:41;;;;;;;;;;;;;;;17.76;64.86;101236.31;5095210;28;20049;-74
2023/05/17 06:33:07;;;;;;;;;;;;;;;17.43;65.66;101241.44;5095076;28;20010;-73
2023/05/17 06:35:33;;;;;;;;;;;;;;;17.21;67.85;101243.34;5113137;28;19912;-73
2023/05/17 06:37:59;;;;;;;;;;;;;;;17.04;67.66;101244.63;5113500;28;20412;-72
2023/05/17 06:40:24;;;;;;;;;;;;;;;16.92;68.66;101255.06;5113314;28;19923;-74
2023/05/17 06:42:49;;;;;;;;;;;;;;;16.93;68.75;101256.75;5113148;28;19915;-73
2023/05/17 06:45:15;;;;;;;;;;;;;;;16.94;68.24;101253.03;5113379;28;19911;-73
2023/05/17 06:47:40;;;;;;;;;;;;;;;16.95;66.10;101254.69;5114343;28;19947;-72
2023/05/17 06:50:08;;;;;;;;;;;;;;;16.88;66.52;101269.94;5113699;28;20131;-72
2023/05/17 06:52:33;;;;;;;;;;;;;;;16.89;65.88;101277.00;5113751;28;20081;-72
2023/05/17 06:54:59;;;;;;;;;;;;;;;16.83;65.54;101277.75;5095395;28;19912;-73
2023/05/17 06:57:24;;;;;;;;;;;;;;;16.80;66.30;101283.53;5113668;28;20404;-73
2023/05/17 06:59:51;;;;;;;;;;;;;;;16.79;66.33;101286.41;5113585;28;19912;-72
2023/05/17 07:02:16;;;;;;;;;;;;;;;16.72;65.01;101278.25;5113446;28;19972;-75
2023/05/17 07:04:41;;;;;;;;;;;;;;;16.68;65.01;101277.78;5114226;28;19915;-77
2023/05/17 07:07:07;;;;;;;;;;;;;;;16.74;65.25;101286.94;5114604;28;19919;-75
2023/05/17 07:09:32;;;;;;;;;;;;;;;16.73;64.18;101286.13;5114439;28;19912;-72
2023/05/17 07:11:57;;;;;;;;;;;;;;;16.79;63.86;101294.47;5113076;28;19912;-73
2023/05/17 07:14:23;;;;;;;;;;;;;;;16.84;63.72;101295.56;5094792;28;19911;-73
2023/05/17 07:16:48;;;;;;;;;;;;;;;16.79;62.12;101292.63;5112665;28;19911;-73
2023/05/17 07:19:14;;;;;;;;;;;;;;;16.81;62.18;101293.25;5112859;28;20002;-71
2023/05/17 07:21:40;;;;;;;;;;;;;;;16.92;61.84;101297.28;5112878;28;19918;-71
2023/05/17 07:24:05;;;;;;;;;;;;;;;16.98;61.20;101289.28;5094713;28;19913;-77
2023/05/17 07:26:31;;;;;;;;;;;;;;;17.03;60.80;101296.78;5113185;28;19960;-73
2023/05/17 07:28:56;;;;;;;;;;;;;;;16.98;60.98;101299.22;5112956;28;20271;-73
2023/05/17 07:31:21;;;;;;;;;;;;;;;16.93;62.15;101294.41;5112936;28;19911;-72
2023/05/17 07:33:47;;;;;;;;;;;;;;;16.81;62.34;101305.88;5113102;28;19918;-73
2023/05/17 07:36:12;;;;;;;;;;;;;;;16.70;63.48;101309.88;5113284;28;20267;-74
2023/05/17 07:38:37;;;;;;;;;;;;;;;16.65;64.21;101312.25;5113516;28;19912;-74
2023/05/17 07:41:03;;;;;;;;;;;;;;;16.63;63.75;101320.53;5114358;28;19919;-73
2023/05/17 07:43:28;;;;;;;;;;;;;;;16.71;63.31;101311.53;5114294;28;20355;-74
2023/05/17 07:45:54;;;;;;;;;;;;;;;16.80;63.77;101313.13;5115305;28;19920;-74
2023/05/17 07:48:19;;;;;;;;;;;;;;;16.86;64.51;101314.19;5114323;28;20229;-73
2023/05/17 07:50:45;;;;;;;;;;;;;;;16.94;64.49;101316.75;5114482;28;20318;-73
2023/05/17 07:53:11;;;;;;;;;;;;;;;16.99;64.59;101315.16;5112911;28;20367;-74
2023/05/17 07:55:36;;;;;;;;;;;;;;;16.96;65.21;101317.41;5112762;28;19959;-73
2023/05/17 07:58:02;;;;;;;;;;;;;;;16.95;66.92;101321.94;5112503;28;19919;-73
2023/05/17 08:00:28;;;;;;;;;;;;;;;16.97;66.65;101322.59;5112462;28;19911;-74
2023/05/17 08:02:53;;;;;;;;;;;;;;;16.98;67.60;101332.34;5113077;28;19916;-74
2023/05/17 08:05:18;;;;;;;;;;;;;;;17.02;67.61;101324.72;5113212;28;19911;-74
2023/05/17 08:07:44;;;;;;;;;;;;;;;17.09;67.95;101319.41;5112825;28;19912;-75
2023/05/17 08:10:36;;;;;;;;;;;;;;;17.08;67.58;101328.53;5111507;28;19934;-76
2023/05/17 08:12:58;;;;;;;;;;;;;;;17.14;67.13;101325.06;5091719;28;19912;-75
2023/05/17 08:15:46;;;;;;;;;;;;;;;17.25;65.56;101335.28;5095792;28;20259;-77
2023/05/17 08:18:11;;;;;;;;;;;;;;;17.21;64.91;101340.22;5082551;28;20324;-73
2023/05/17 08:20:37;;;;;;;;;;;;;;;17.25;65.32;101336.13;5117476;28;19916;-75
2023/05/17 08:32:36;;;;;;;;;;;;;;;17.73;63.80;101343.63;5045688;22;19928;-74
2023/05/17 08:35:14;;;;;;;;;;;;;;;17.74;64.18;101348.00;4998733;28;19917;-78
2023/05/17 08:37:39;;;;;;;;;;;;;;;17.64;63.89;101354.53;5015230;28;19921;-77
2023/05/17 08:40:05;;;;;;;;;;;;;;;17.45;64.59;101363.25;5016808;28;19921;-74
2023/05/17 08:42:31;;;;;;;;;;;;;;;17.27;64.17;101357.47;4999425;28;20365;-73
2023/05/17 08:44:56;;;;;;;;;;;;;;;17.09;64.78;101360.63;4998960;28;19914;-73
2023/05/17 08:47:28;;;;;;;;;;;;;;;17.00;65.43;101361.75;5017103;28;19913;-73
2023/05/17 08:49:56;;;;;;;;;;;;;;;16.93;65.85;101369.75;4999093;28;19959;-74
2023/05/17 08:52:21;;;;;;;;;;;;;;;16.87;65.54;101370.50;5015816;28;19913;-74
2023/05/17 08:54:47;;;;;;;;;;;;;;;16.81;66.11;101371.28;5015216;28;20012;-73
2023/05/17 08:57:13;;;;;;;;;;;;;;;16.90;65.93;101380.88;5015606;28;19914;-72
2023/05/17 08:59:38;;;;;;;;;;;;;;;16.96;65.77;101380.13;4997675;28;20388;-70
2023/05/17 09:02:04;;;;;;;;;;;;;;;17.02;66.05;101368.59;5015323;28;19914;-72
2023/05/17 09:04:30;;;;;;;;;;;;;;;17.21;66.14;101369.00;5015316;28;20093;-71
2023/05/17 09:06:55;;;;;;;;;;;;;;;17.49;66.01;101386.06;5015400;28;19917;-71
2023/05/17 09:09:22;;;;;;;;;;;;;;;17.77;64.49;101393.41;5015071;28;20452;-72
2023/05/17 09:11:47;;;;;;;;;;;;;;;18.15;64.38;101386.63;5015234;28;19980;-71
2023/05/17 09:14:14;;;;;;;;;;;;;;;18.46;62.22;101385.38;5015084;28;20337;-73
2023/05/17 09:16:40;;;;;;;;;;;;;;;18.66;61.64;101383.66;5015116;28;19920;-69
2023/05/17 09:19:06;;;;;;;;;;;;;;;18.71;60.87;101391.97;5015097;28;20020;-69
2023/05/17 09:21:31;;;;;;;;;;;;;;;18.44;61.56;101392.81;5015068;28;19914;-70
2023/05/17 09:24:00;;;;;;;;;;;;;;;18.08;61.99;101398.41;5014752;28;19913;-70
2023/05/17 09:26:36;;;;;;;;;;;;;;;17.74;63.40;101397.31;5014760;28;19986;-70
2023/05/17 09:29:01;;;;;;;;;;;;;;;17.44;64.70;101399.28;5014652;28;19921;-71
2023/05/17 09:31:27;;;;;;;;;;;;;;;17.37;65.54;101402.94;5014631;28;19979;-69
2023/05/17 09:33:52;;;;;;;;;;;;;;;17.33;65.83;101407.84;5014399;28;19917;-71
2023/05/17 09:36:21;;;;;;;;;;;;;;;17.23;66.07;101405.47;5014395;28;19914;-70
2023/05/17 09:38:52;;;;;;;;;;;;;;;17.13;66.03;101412.19;5014708;28;19989;-70
2023/05/17 09:41:18;;;;;;;;;;;;;;;17.00;66.23;101397.56;5014989;28;19913;-69
2023/05/17 09:43:43;;;;;;;;;;;;;;;17.03;66.71;101405.25;5014349;28;19914;-70
2023/05/17 09:46:09;;;;;;;;;;;;;;;17.16;66.77;101403.75;5014385;28;20402;-71
2023/05/17 09:48:36;;;;;;;;;;;;;;;17.41;66.00;101402.38;5014680;28;19913;-72
2023/05/17 09:51:01;;;;;;;;;;;;;;;17.64;64.44;101403.00;5014596;28;19949;-71
2023/05/17 09:53:28;;;;;;;;;;;;;;;17.64;64.12;101411.09;5014663;28;19967;-73
2023/05/17 09:55:59;;;;;;;;;;;;;;;17.69;65.49;101412.41;5014298;28;19913;-75
2023/05/17 09:58:24;;;;;;;;;;;;;;;17.85;64.71;101412.09;5014482;28;20277;-72
2023/05/17 10:00:52;;;;;;;;;;;;;;;18.05;62.63;101413.13;5014178;28;19914;-71
2023/05/17 10:03:18;;;;;;;;;;;;;;;18.27;63.01;101398.56;4996376;28;19920;-69
2023/05/17 10:05:44;;;;;;;;;;;;;;;18.88;60.50;101409.50;5014202;28;19917;-71
2023/05/17 10:08:13;;;;;;;;;;;;;;;19.28;58.32;101415.00;5014133;28;19914;-74
2023/05/17 10:10:39;;;;;;;;;;;;;;;19.47;57.43;101408.81;5013288;28;19964;-73
2023/05/17 10:13:08;;;;;;;;;;;;;;;19.65;58.02;101410.94;5019874;28;19921;-74
2023/05/17 10:15:34;;;;;;;;;;;;;;;19.67;58.51;101416.16;5020929;28;20000;-72
2023/05/17 10:18:00;;;;;;;;;;;;;;;19.73;57.72;101418.03;5023872;28;19924;-74
2023/05/17 10:20:26;;;;;;;;;;;;;;;19.62;57.41;101418.63;5025326;28;19921;-72
2023/05/17 10:22:52;;;;;;;;;;;;;;;19.43;57.41;101412.16;5004046;28;19913;-72
2023/05/17 10:25:18;;;;;;;;;;;;;;;19.36;57.48;101416.69;5005815;28;19914;-72
2023/05/17 10:27:43;;;;;;;;;;;;;;;19.36;56.67;101417.50;5017537;28;19924;-73
2023/05/17 10:30:10;;;;;;;;;;;;;;;19.44;57.12;101420.03;5022612;28;19918;-74
2023/05/17 10:32:35;;;;;;;;;;;;;;;19.65;56.51;101421.75;5013582;28;19976;-74
2023/05/17 10:35:02;;;;;;;;;;;;;;;19.98;56.00;101421.78;5013520;28;19918;-74
2023/05/17 10:37:29;;;;;;;;;;;;;;;19.90;56.35;101424.69;5012760;28;21112;-72
2023/05/17 10:39:55;;;;;;;;;;;;;;;19.91;55.33;101415.53;5013326;28;19959;-71
2023/05/17 10:42:21;;;;;;;;;;;;;;;19.95;56.45;101414.09;5013614;28;19921;-72
2023/05/17 10:44:46;;;;;;;;;;;;;;;19.91;55.63;101426.34;5013223;28;20004;-73
2023/05/17 10:47:13;;;;;;;;;;;;;;;19.81;55.70;101415.13;4995332;28;19983;-72
2023/05/17 10:49:40;;;;;;;;;;;;;;;19.89;55.13;101420.31;5012791;28;20004;-72
2023/05/17 10:52:34;;;;;;;;;;;;;;;20.09;55.20;101418.44;5013691;28;19918;-74
2023/05/17 10:55:00;;;;;;;;;;;;;;;20.31;53.50;101410.94;5002438;28;19920;-71
2023/05/17 10:57:36;;;;;;;;;;;;;;;20.46;52.36;101407.19;4995075;28;19917;-71
2023/05/17 11:00:05;;;;;;;;;;;;;;;20.61;52.25;101411.31;5011010;28;19913;-73
2023/05/17 11:02:32;;;;;;;;;;;;;;;20.65;52.28;101414.41;5013198;28;19921;-71
2023/05/17 11:04:59;;;;;;;;;;;;;;;20.46;52.25;101418.84;5013407;28;19914;-71
2023/05/17 11:07:28;;;;;;;;;;;;;;;20.21;52.75;101420.50;5013122;28;20000;-76
2023/05/17 11:09:54;;;;;;;;;;;;;;;20.01;53.95;101421.38;5012522;28;19924;-71
2023/05/17 11:12:52;;;;;;;;;;;;;;;19.79;54.64;101411.81;5012825;28;19921;-74
2023/05/17 11:15:21;;;;;;;;;;;;;;;19.83;54.30;101406.81;5012467;28;19914;-73
2023/05/17 11:17:54;;;;;;;;;;;;;;;19.97;53.98;101406.63;5012749;28;19913;-72
2023/05/17 11:20:26;;;;;;;;;;;;;;;20.13;53.89;101408.03;5011752;28;19972;-73
2023/05/17 11:23:05;;;;;;;;;;;;;;;20.24;53.74;101406.56;5012169;28;20381;-77
2023/05/17 11:25:35;;;;;;;;;;;;;;;20.31;53.84;101408.22;5011293;28;19960;-74
2023/05/17 11:28:06;;;;;;;;;;;;;;;20.54;53.81;101405.09;4994630;28;19913;-73
2023/05/17 11:30:31;;;;;;;;;;;;;;;20.72;53.22;101413.34;4994566;28;20277;-71
2023/05/17 11:32:58;;;;;;;;;;;;;;;20.86;52.54;101400.59;5012458;28;19917;-73
2023/05/17 11:35:37;;;;;;;;;;;;;;;20.84;52.76;101410.81;5012239;28;19965;-74
2023/05/17 11:38:20;;;;;;;;;;;;;;;20.61;51.13;101416.72;5012565;28;20016;-75
2023/05/17 11:41:14;;;;;;;;;;;;;;;20.33;52.44;101411.56;5012544;28;19917;-76
2023/05/17 11:43:44;;;;;;;;;;;;;;;20.39;52.28;101418.00;5012488;28;19960;-73
2023/05/17 11:46:17;;;;;;;;;;;;;;;20.57;52.91;101414.66;5012322;28;19913;-79
2023/05/17 11:48:43;;;;;;;;;;;;;;;20.70;51.44;101415.44;4996954;28;19960;-77
2023/05/17 11:51:12;;;;;;;;;;;;;;;20.88;51.29;101413.94;4999297;28;19968;-75
2023/05/17 11:53:38;;;;;;;;;;;;;;;20.99;49.80;101411.38;5015854;28;19913;-74
2023/05/17 11:56:04;;;;;;;;;;;;;;;20.94;50.13;101413.06;5016434;28;20004;-72
2023/05/17 11:58:30;;;;;;;;;;;;;;;20.87;49.56;101420.38;5016112;28;19913;-76
2023/05/17 12:00:56;;;;;;;;;;;;;;;20.69;50.33;101413.78;5016295;28;20412;-76
2023/05/17 12:03:27;;;;;;;;;;;;;;;20.65;50.17;101407.13;5016338;28;20358;-74
2023/05/17 12:06:10;;;;;;;;;;;;;;;20.62;51.15;101410.25;5016265;28;19920;-75
2023/05/17 12:08:36;;;;;;;;;;;;;;;20.69;50.50;101407.53;5016248;28;19913;-75
2023/05/17 12:11:02;;;;;;;;;;;;;;;20.80;50.89;101403.31;5011039;28;19913;-74
2023/05/17 12:13:31;;;;;;;;;;;;;;;20.84;50.65;101407.28;5016424;28;19921;-76
2023/05/17 12:16:04;;;;;;;;;;;;;;;20.90;49.77;101404.53;5018006;28;20404;-78
2023/05/17 12:18:37;;;;;;;;;;;;;;;21.14;50.66;101405.69;5018108;28;19960;-75
2023/05/17 12:21:03;;;;;;;;;;;;;;;21.26;49.25;101412.09;5013491;28;19917;-76
2023/05/17 12:23:30;;;;;;;;;;;;;;;21.21;49.48;101413.75;5023579;28;19917;-79
2023/05/17 12:26:01;;;;;;;;;;;;;;;21.28;49.06;101422.72;5021024;28;20353;-80
2023/05/17 12:28:26;;;;;;;;;;;;;;;21.33;48.88;101407.47;5003051;28;19914;-79
2023/05/17 12:30:57;;;;;;;;;;;;;;;21.34;48.73;101408.28;5016171;28;20016;-77
2023/05/17 12:33:23;;;;;;;;;;;;;;;21.33;49.63;101399.31;4999937;28;19944;-77
2023/05/17 12:35:49;;;;;;;;;;;;;;;21.55;48.48;101399.81;5015861;28;19964;-73
2023/05/17 12:38:14;;;;;;;;;;;;;;;21.67;48.09;101397.22;5016572;28;19914;-77
2023/05/17 12:40:40;;;;;;;;;;;;;;;21.55;47.93;101402.53;4998645;28;20004;-78
2023/05/17 12:43:05;;;;;;;;;;;;;;;21.32;48.23;101399.53;5016847;28;19948;-77